Time;durP1;ratioP1;P1;durP2;ratioP2;P2;SDS_P1;SDS_P2;PMS_P1;PMS_P2;Temp;Humidity;BMP_temperature;BMP_pressure;BME280_temperature;BME280_humidity;BME280_pressure;Samples;Min_cycle;Max_cycle;Signal;HPM_P1;HPM_P2
2024/03/02 00:01:10;;;;;;;1.35;0.70;;;;;;;16.70;39.39;99626.56;4924112;29;20044;-63
2024/03/02 00:03:37;;;;;;;4.47;0.40;;;;;;;16.73;39.18;99631.59;4940084;29;20509;-63
2024/03/02 00:06:02;;;;;;;1.60;0.35;;;;;;;16.75;39.34;99634.91;4918223;29;20071;-63
2024/03/02 00:08:28;;;;;;;5.85;0.70;;;;;;;16.72;39.28;99629.91;4915897;29;20111;-63
2024/03/02 00:11:00;;;;;;;1.40;0.63;;;;;;;16.76;39.21;99636.59;4917074;29;20108;-62
2024/03/02 00:13:26;;;;;;;0.80;0.35;;;;;;;16.77;39.78;99632.88;4923403;29;20115;-63
2024/03/02 00:15:56;;;;;;;2.00;0.40;;;;;;;16.76;40.13;99631.19;4922696;29;20123;-62
2024/03/02 00:18:31;;;;;;;1.95;0.73;;;;;;;16.81;39.11;99638.69;4925448;29;20059;-63
2024/03/02 00:20:57;;;;;;;0.77;0.20;;;;;;;16.82;38.90;99635.81;4922329;29;20115;-63
2024/03/02 00:23:24;;;;;;;1.70;0.70;;;;;;;16.82;39.07;99624.16;4929786;29;20139;-63
2024/03/02 00:25:53;;;;;;;3.65;0.40;;;;;;;16.82;39.55;99625.00;4918790;29;20032;-63
2024/03/02 00:28:27;;;;;;;1.38;0.35;;;;;;;16.83;39.44;99637.47;4918837;29;20035;-62
2024/03/02 00:30:56;;;;;;;1.15;0.50;;;;;;;16.85;39.74;99640.00;4934324;28;20102;-63
2024/03/02 00:33:22;;;;;;;1.25;0.45;;;;;;;16.84;39.24;99647.25;4935357;29;20032;-63
2024/03/02 00:35:49;;;;;;;2.70;0.50;;;;;;;16.83;40.00;99648.28;4915274;29;20052;-63
2024/03/02 00:38:15;;;;;;;1.85;0.70;;;;;;;16.85;40.13;99648.94;4915373;29;20051;-63
2024/03/02 00:40:41;;;;;;;3.05;0.40;;;;;;;16.88;40.50;99653.97;4918515;29;20024;-63
2024/03/02 00:43:30;;;;;;;2.40;0.60;;;;;;;16.83;40.17;99645.59;4918683;29;20028;-62
2024/03/02 00:45:56;;;;;;;2.92;0.60;;;;;;;16.91;40.08;99660.00;4923972;29;20035;-62
2024/03/02 00:48:21;;;;;;;0.45;0.43;;;;;;;16.92;39.56;99661.69;4918680;29;20403;-63
2024/03/02 00:50:52;;;;;;;5.00;0.63;;;;;;;16.92;39.44;99669.81;4934411;29;20046;-63
2024/03/02 00:53:18;;;;;;;3.88;0.90;;;;;;;16.93;39.68;99671.44;4938019;29;20090;-63
2024/03/02 00:55:47;;;;;;;0.30;0.20;;;;;;;16.96;39.06;99684.59;4922335;29;20028;-63
2024/03/02 00:58:12;;;;;;;1.42;0.40;;;;;;;16.98;39.51;99688.75;4939363;28;20415;-62
2024/03/02 01:00:37;;;;;;;2.30;0.40;;;;;;;17.00;39.28;99702.91;4939777;29;20492;-63
2024/03/02 01:03:03;;;;;;;0.98;0.35;;;;;;;17.07;39.60;99719.22;4939781;29;20028;-62
2024/03/02 01:05:29;;;;;;;1.77;0.57;;;;;;;17.07;38.93;99725.47;4938553;29;20055;-63
2024/03/02 01:07:54;;;;;;;4.60;0.90;;;;;;;17.05;39.99;99734.81;4939127;29;20119;-63
2024/03/02 01:10:20;;;;;;;2.08;0.32;;;;;;;17.01;39.55;99752.47;4937513;29;20408;-63
2024/03/02 01:12:45;;;;;;;1.30;0.22;;;;;;;16.93;40.54;99755.31;4938994;29;20043;-63
2024/03/02 01:15:11;;;;;;;0.10;0.10;;;;;;;16.83;40.41;99756.47;4937773;29;20052;-63
2024/03/02 01:17:36;;;;;;;0.43;0.10;;;;;;;16.72;40.83;99758.91;4937574;29;20114;-63
2024/03/02 01:20:02;;;;;;;1.10;0.28;;;;;;;16.64;41.65;99773.38;4938572;29;20050;-63
2024/03/02 01:22:28;;;;;;;0.10;0.10;;;;;;;16.53;41.19;99763.09;4938662;29;20035;-63
2024/03/02 01:24:54;;;;;;;0.25;0.05;;;;;;;16.49;41.74;99778.00;4937401;29;20099;-63
2024/03/02 01:27:20;;;;;;;0.47;0.10;;;;;;;16.39;40.99;99768.53;4937557;29;20070;-63
2024/03/02 01:29:45;;;;;;;0.00;0.00;;;;;;;16.35;40.89;99768.09;4938630;29;20067;-64
2024/03/02 01:32:10;;;;;;;0.20;0.13;;;;;;;16.29;41.08;99774.25;4938450;29;20039;-63
2024/03/02 01:34:36;;;;;;;0.08;0.08;;;;;;;16.28;41.42;99772.56;4938289;29;20055;-63
2024/03/02 01:37:01;;;;;;;0.13;0.03;;;;;;;16.22;42.08;99767.91;4921532;29;20035;-63
2024/03/02 01:39:26;;;;;;;0.63;0.10;;;;;;;16.15;42.44;99769.72;4937261;29;20508;-63
2024/03/02 01:41:52;;;;;;;1.23;0.10;;;;;;;16.14;41.71;99768.03;4936994;29;20515;-63
2024/03/02 01:44:17;;;;;;;0.38;0.15;;;;;;;16.07;42.07;99768.00;4921330;29;20115;-63
2024/03/02 01:46:42;;;;;;;1.45;0.17;;;;;;;16.01;41.68;99759.78;4937080;29;20055;-63
2024/03/02 01:49:08;;;;;;;0.55;0.32;;;;;;;15.98;42.25;99777.22;4921182;29;20086;-63
2024/03/02 01:51:33;;;;;;;0.77;0.17;;;;;;;15.92;42.84;99777.13;4936735;29;20090;-63
2024/03/02 01:53:59;;;;;;;0.43;0.30;;;;;;;15.87;42.23;99769.63;4936711;29;20103;-63
2024/03/02 01:56:24;;;;;;;0.28;0.28;;;;;;;15.84;43.12;99759.19;4936744;29;20111;-63
2024/03/02 01:58:49;;;;;;;0.20;0.20;;;;;;;15.78;42.39;99769.88;4938302;29;20090;-63
2024/03/02 02:01:16;;;;;;;0.95;0.22;;;;;;;15.65;43.30;99760.63;4936660;29;20127;-63
2024/03/02 02:03:42;;;;;;;0.13;0.10;;;;;;;15.64;43.27;99780.53;4936554;29;20136;-63
2024/03/02 02:06:08;;;;;;;2.75;0.40;;;;;;;15.59;42.77;99777.56;4936862;29;20040;-63
2024/03/02 02:08:33;;;;;;;1.10;0.28;;;;;;;15.56;41.88;99767.13;4920852;29;20056;-63
2024/03/02 02:10:58;;;;;;;1.25;0.47;;;;;;;15.49;41.83;99771.63;4936553;29;20028;-62
2024/03/02 02:13:24;;;;;;;0.10;0.10;;;;;;;15.47;41.77;99768.25;4937712;29;20399;-63
2024/03/02 02:15:50;;;;;;;0.65;0.10;;;;;;;15.43;43.40;99772.31;4936610;29;20039;-63
2024/03/02 02:18:15;;;;;;;0.20;0.10;;;;;;;15.37;43.74;99762.28;4937688;29;20492;-63
2024/03/02 02:20:41;;;;;;;1.08;0.25;;;;;;;15.35;42.23;99764.31;4936237;29;20043;-63
2024/03/02 02:23:07;;;;;;;2.35;0.30;;;;;;;15.30;43.29;99758.63;4936404;29;20038;-63
2024/03/02 02:25:33;;;;;;;0.52;0.20;;;;;;;15.33;42.67;99755.56;4936205;29;20464;-63
2024/03/02 02:27:58;;;;;;;0.10;0.10;;;;;;;15.31;42.62;99752.22;4936111;29;20059;-63
2024/03/02 02:30:29;;;;;;;0.13;0.10;;;;;;;15.24;43.09;99743.22;4937398;29;20032;-63
2024/03/02 02:32:55;;;;;;;0.10;0.10;;;;;;;15.19;43.37;99744.78;4920458;29;20055;-63
2024/03/02 02:35:20;;;;;;;1.10;0.28;;;;;;;15.18;43.33;99743.94;4936094;29;20140;-63
2024/03/02 02:37:46;;;;;;;0.00;0.00;;;;;;;15.16;42.56;99743.25;4936093;29;20043;-63
2024/03/02 02:40:12;;;;;;;0.00;0.00;;;;;;;15.13;43.44;99743.66;4937357;29;20499;-63
2024/03/02 02:42:38;;;;;;;0.15;0.00;;;;;;;15.15;43.47;99757.81;4920058;29;20501;-63
2024/03/02 02:45:04;;;;;;;0.43;0.10;;;;;;;15.08;43.39;99749.59;4919927;29;20047;-63
2024/03/02 02:47:30;;;;;;;0.03;0.03;;;;;;;15.06;43.51;99734.63;4936112;29;20043;-63
2024/03/02 02:49:55;;;;;;;0.03;0.03;;;;;;;15.06;43.04;99727.38;4935738;29;20044;-63
2024/03/02 02:52:21;;;;;;;1.17;0.15;;;;;;;15.06;42.46;99726.53;4936110;29;20039;-63
2024/03/02 02:54:46;;;;;;;0.28;0.00;;;;;;;15.09;43.71;99724.31;4937293;29;20508;-63
2024/03/02 02:57:11;;;;;;;0.13;0.10;;;;;;;15.12;43.99;99737.44;4937118;29;20028;-63
2024/03/02 02:59:37;;;;;;;0.47;0.08;;;;;;;15.14;42.69;99732.69;4941640;29;20411;-63
2024/03/02 03:02:02;;;;;;;0.88;0.10;;;;;;;15.16;42.72;99727.09;4942474;29;20032;-63
2024/03/02 03:04:27;;;;;;;2.00;0.20;;;;;;;15.16;42.50;99721.69;4939257;29;20056;-62
2024/03/02 03:06:53;;;;;;;3.58;0.25;;;;;;;15.17;44.09;99734.16;4935961;29;20035;-62
2024/03/02 03:09:18;;;;;;;1.70;0.10;;;;;;;15.19;43.54;99732.09;4936889;29;20032;-63
2024/03/02 03:11:44;;;;;;;0.20;0.20;;;;;;;15.20;42.30;99744.59;4935711;29;20036;-63
2024/03/02 03:14:09;;;;;;;0.35;0.20;;;;;;;15.20;43.43;99755.38;4934778;29;20135;-62
2024/03/02 03:16:35;;;;;;;0.00;0.00;;;;;;;15.18;42.33;99741.25;4935506;29;20087;-63
2024/03/02 03:19:00;;;;;;;0.63;0.10;;;;;;;15.18;42.98;99735.84;4935294;29;20109;-63
2024/03/02 03:21:25;;;;;;;0.05;0.00;;;;;;;15.16;42.45;99744.13;4935464;29;20071;-63
2024/03/02 03:23:51;;;;;;;0.10;0.08;;;;;;;15.21;43.79;99746.28;4919471;29;20126;-62
2024/03/02 03:26:16;;;;;;;0.00;0.00;;;;;;;15.23;43.38;99735.28;4936383;29;20492;-62
2024/03/02 03:28:41;;;;;;;0.30;0.15;;;;;;;15.18;43.65;99730.44;4936420;29;20500;-62
2024/03/02 03:31:07;;;;;;;0.88;0.10;;;;;;;15.20;43.53;99744.59;4936444;29;20035;-63
2024/03/02 03:33:32;;;;;;;0.25;0.10;;;;;;;15.16;42.59;99740.56;4934841;29;20143;-63
2024/03/02 03:35:57;;;;;;;0.63;0.10;;;;;;;15.15;43.57;99728.13;4934979;29;20047;-63
2024/03/02 03:38:23;;;;;;;2.63;0.20;;;;;;;15.16;43.71;99727.09;4919235;29;20419;-63
2024/03/02 03:40:48;;;;;;;0.15;0.15;;;;;;;15.20;43.39;99728.41;4936078;29;20512;-62
2024/03/02 03:43:13;;;;;;;0.00;0.00;;;;;;;15.21;44.04;99730.09;4934879;29;20027;-63
2024/03/02 03:45:39;;;;;;;0.05;0.00;;;;;;;15.21;42.54;99719.28;4936153;29;20444;-63
2024/03/02 03:48:04;;;;;;;0.10;0.10;;;;;;;15.20;42.78;99727.56;4936129;29;20076;-63
2024/03/02 03:50:30;;;;;;;1.10;0.10;;;;;;;15.20;43.42;99733.78;4935008;29;20070;-63
2024/03/02 03:52:55;;;;;;;1.27;0.10;;;;;;;15.22;42.52;99737.13;4934882;29;20412;-63
2024/03/02 03:55:20;;;;;;;0.32;0.10;;;;;;;15.22;42.74;99731.75;4936257;29;20035;-62
2024/03/02 03:57:46;;;;;;;1.60;0.20;;;;;;;15.24;42.64;99735.13;4936216;29;20495;-63
2024/03/02 04:00:12;;;;;;;0.00;0.00;;;;;;;15.27;44.16;99734.72;4934791;29;20036;-63
2024/03/02 04:02:37;;;;;;;0.30;0.17;;;;;;;15.30;43.83;99745.13;4919474;29;20054;-63
2024/03/02 04:05:04;;;;;;;0.10;0.10;;;;;;;15.30;42.82;99739.75;4936321;29;20114;-63
2024/03/02 04:07:30;;;;;;;0.20;0.10;;;;;;;15.31;42.99;99744.13;4934929;29;20035;-63
2024/03/02 04:09:55;;;;;;;0.28;0.10;;;;;;;15.30;43.82;99742.44;4936116;29;20094;-62
2024/03/02 04:12:21;;;;;;;0.10;0.10;;;;;;;15.29;43.82;99738.09;4934767;29;20410;-63
2024/03/02 04:14:46;;;;;;;0.10;0.10;;;;;;;15.29;42.89;99743.47;4936005;29;20399;-62
2024/03/02 04:17:13;;;;;;;0.13;0.10;;;;;;;15.26;43.79;99733.06;4936113;29;20503;-63
2024/03/02 04:19:38;;;;;;;0.10;0.10;;;;;;;15.30;43.69;99747.84;4936197;29;20563;-63
2024/03/02 04:22:04;;;;;;;0.10;0.10;;;;;;;15.28;43.12;99741.78;4934932;29;20068;-63
2024/03/02 04:24:29;;;;;;;0.00;0.00;;;;;;;15.28;43.61;99736.41;4934590;29;20519;-63
2024/03/02 04:26:55;;;;;;;0.47;0.10;;;;;;;15.27;43.84;99734.72;4937936;29;20103;-63
2024/03/02 04:29:20;;;;;;;0.95;0.10;;;;;;;15.26;43.21;99733.06;4939974;29;20119;-63
2024/03/02 04:31:46;;;;;;;0.13;0.10;;;;;;;15.26;43.38;99741.16;4939752;29;20036;-63
2024/03/02 04:34:11;;;;;;;1.00;0.00;;;;;;;15.24;43.56;99745.91;4939372;29;20442;-63
2024/03/02 04:36:36;;;;;;;0.00;0.00;;;;;;;15.23;43.37;99738.81;4938258;29;20091;-63
2024/03/02 04:39:02;;;;;;;0.17;0.15;;;;;;;15.26;43.53;99738.44;4939388;29;20118;-62
2024/03/02 04:41:27;;;;;;;2.38;0.17;;;;;;;15.30;44.13;99747.84;4939515;29;20046;-63
2024/03/02 04:43:53;;;;;;;0.20;0.10;;;;;;;15.29;43.94;99745.34;4939586;29;20110;-63
2024/03/02 04:46:18;;;;;;;0.32;0.20;;;;;;;15.28;43.07;99740.94;4939500;29;20070;-63
2024/03/02 04:48:44;;;;;;;0.28;0.10;;;;;;;15.29;44.44;99743.47;4938341;29;20042;-63
2024/03/02 04:51:09;;;;;;;1.35;0.20;;;;;;;15.29;43.75;99743.47;4938648;29;20055;-62
2024/03/02 04:53:35;;;;;;;2.53;0.10;;;;;;;15.29;43.28;99738.09;4937894;29;20032;-63
2024/03/02 04:58:44;;;;;;;0.13;0.10;;;;;;;15.28;43.46;99741.78;4938199;29;20087;-63
2024/03/02 05:01:10;;;;;;;0.30;0.10;;;;;;;15.24;43.50;99745.91;4939257;29;20036;-63
2024/03/02 05:03:35;;;;;;;0.77;0.03;;;;;;;15.26;44.53;99754.66;4937944;29;20119;-62
2024/03/02 05:06:01;;;;;;;2.05;0.28;;;;;;;15.29;43.49;99753.44;4937675;29;20111;-63
2024/03/02 05:08:26;;;;;;;0.57;0.20;;;;;;;15.27;43.78;99750.09;4939316;29;20075;-62
2024/03/02 05:10:51;;;;;;;0.55;0.28;;;;;;;15.26;42.91;99756.50;4939130;29;20369;-62
2024/03/02 05:13:17;;;;;;;0.15;0.00;;;;;;;15.22;43.85;99757.88;4939433;29;20381;-63
2024/03/02 05:15:43;;;;;;;0.75;0.10;;;;;;;15.25;43.18;99763.75;4938923;29;20032;-63
2024/03/02 05:18:08;;;;;;;0.20;0.20;;;;;;;15.26;44.10;99768.13;4938804;29;20131;-63
2024/03/02 05:20:34;;;;;;;0.98;0.20;;;;;;;15.25;43.90;99771.00;4937425;29;20087;-63
2024/03/02 05:22:59;;;;;;;3.42;0.47;;;;;;;15.24;43.72;99772.88;4938666;29;20031;-63
2024/03/02 05:25:24;;;;;;;1.65;0.10;;;;;;;15.26;43.42;99780.78;4937533;29;20040;-62
2024/03/02 05:27:50;;;;;;;1.60;0.40;;;;;;;15.24;43.00;99777.44;4937238;29;20527;-63
2024/03/02 05:30:15;;;;;;;0.10;0.10;;;;;;;15.24;43.55;99783.69;4921877;29;20400;-63
2024/03/02 05:32:41;;;;;;;0.30;0.10;;;;;;;15.31;44.47;99784.59;4937022;29;20127;-62
2024/03/02 05:35:07;;;;;;;0.10;0.10;;;;;;;15.29;43.76;99770.47;4937215;29;20118;-63
2024/03/02 05:37:33;;;;;;;1.17;0.10;;;;;;;15.38;43.01;99777.41;4937935;29;20128;-62
2024/03/02 05:39:59;;;;;;;1.10;0.10;;;;;;;15.42;44.24;99767.09;4938532;29;20044;-63
2024/03/02 05:42:24;;;;;;;0.52;0.20;;;;;;;15.44;43.63;99778.53;4937093;29;20044;-62
2024/03/02 05:44:50;;;;;;;0.20;0.10;;;;;;;15.45;44.20;99786.47;4937182;29;20393;-63
2024/03/02 05:47:15;;;;;;;0.03;0.03;;;;;;;15.44;42.65;99792.03;4938296;29;20047;-63
2024/03/02 05:49:40;;;;;;;2.90;1.10;;;;;;;15.43;42.68;99799.31;4936928;29;20464;-63
2024/03/02 05:52:06;;;;;;;0.10;0.10;;;;;;;15.42;43.44;99794.94;4920958;29;20040;-63
2024/03/02 05:54:32;;;;;;;0.68;0.10;;;;;;;15.45;43.08;99799.97;4936964;29;20104;-63
2024/03/02 05:57:15;;;;;;;0.75;0.08;;;;;;;15.45;44.17;99797.25;4938037;29;20052;-62
2024/03/02 05:59:41;;;;;;;1.33;0.25;;;;;;;15.51;42.99;99806.50;4936935;29;20135;-63
2024/03/02 06:02:06;;;;;;;2.30;0.20;;;;;;;15.52;43.88;99803.59;4936486;29;20106;-62
2024/03/02 06:04:31;;;;;;;0.10;0.00;;;;;;;15.54;43.81;99801.59;4921191;29;20462;-62
2024/03/02 06:06:57;;;;;;;0.10;0.10;;;;;;;15.54;43.90;99806.97;4937715;29;20028;-63
2024/03/02 06:09:24;;;;;;;0.98;0.10;;;;;;;15.53;43.87;99810.69;4937806;29;20050;-62
2024/03/02 06:11:49;;;;;;;1.35;0.55;;;;;;;15.52;42.95;99803.59;4936870;29;20095;-62
2024/03/02 06:14:15;;;;;;;0.05;0.00;;;;;;;15.52;43.92;99809.00;4937562;29;20123;-63
2024/03/02 06:16:40;;;;;;;0.22;0.03;;;;;;;15.43;42.90;99799.31;4920939;29;20044;-63
2024/03/02 06:19:07;;;;;;;0.22;0.10;;;;;;;15.37;43.98;99805.44;4938045;28;20492;-63
2024/03/02 06:21:32;;;;;;;0.70;0.10;;;;;;;15.36;42.43;99817.25;4938232;29;20456;-63
2024/03/02 06:23:57;;;;;;;0.20;0.20;;;;;;;15.33;43.91;99812.22;4920553;29;20039;-63
2024/03/02 06:26:23;;;;;;;3.70;0.40;;;;;;;15.32;43.69;99818.66;4937414;29;20050;-63
2024/03/02 06:28:48;;;;;;;0.85;0.10;;;;;;;15.31;42.58;99822.38;4936233;29;20110;-63
2024/03/02 06:31:14;;;;;;;0.40;0.10;;;;;;;15.28;43.15;99817.34;4936035;29;20476;-63
2024/03/02 06:33:40;;;;;;;0.25;0.20;;;;;;;15.29;42.12;99813.63;4936111;29;20395;-62
2024/03/02 06:36:08;;;;;;;0.20;0.10;;;;;;;15.27;42.57;99818.34;4937292;29;20504;-62
2024/03/02 06:38:33;;;;;;;0.20;0.20;;;;;;;15.22;42.71;99815.38;4936082;29;20504;-63
2024/03/02 06:40:59;;;;;;;1.55;0.45;;;;;;;15.19;42.38;99825.72;4937300;28;20044;-63
2024/03/02 06:43:24;;;;;;;0.90;0.20;;;;;;;15.19;42.96;99833.81;4937194;29;20555;-62
2024/03/02 06:45:50;;;;;;;4.25;0.38;;;;;;;15.18;42.46;99838.38;4935926;29;20051;-63
2024/03/02 06:48:19;;;;;;;5.75;0.15;;;;;;;15.19;42.86;99850.00;4919880;29;20040;-63
2024/03/02 06:50:46;;;;;;;0.40;0.15;;;;;;;15.19;43.45;99844.59;4935835;29;20051;-62
2024/03/02 06:53:11;;;;;;;1.35;0.28;;;;;;;15.17;42.31;99842.06;4937192;29;20046;-63
2024/03/02 06:55:37;;;;;;;0.30;0.30;;;;;;;15.17;42.06;99847.47;4937082;29;20027;-63
2024/03/02 06:58:02;;;;;;;0.20;0.20;;;;;;;15.17;43.53;99850.16;4936034;29;20427;-63
2024/03/02 07:00:29;;;;;;;3.05;0.17;;;;;;;15.14;42.40;99842.44;4935660;29;20385;-62
2024/03/02 07:02:54;;;;;;;0.20;0.20;;;;;;;15.19;42.34;99845.41;4936753;29;20038;-62
2024/03/02 07:05:21;;;;;;;2.20;0.20;;;;;;;15.16;43.27;99846.63;4935735;29;20040;-63
2024/03/02 07:07:46;;;;;;;4.97;0.50;;;;;;;15.24;42.22;99859.22;4936745;29;20559;-62
2024/03/02 07:10:11;;;;;;;0.25;0.20;;;;;;;15.24;42.50;99845.72;4936959;29;20126;-63
2024/03/02 07:12:37;;;;;;;1.33;0.20;;;;;;;15.34;42.88;99858.94;4919596;29;20492;-63
2024/03/02 07:17:28;;;;;;;2.30;0.30;;;;;;;15.82;42.79;99852.22;4937133;29;20404;-62
2024/03/02 07:19:54;;;;;;;1.17;0.32;;;;;;;16.02;41.74;99858.72;4937668;29;20047;-63
2024/03/02 07:22:19;;;;;;;2.05;0.15;;;;;;;16.25;42.21;99864.81;4940360;29;20090;-63
2024/03/02 07:24:48;;;;;;;0.40;0.30;;;;;;;16.48;41.98;99865.53;4923787;29;20036;-63
2024/03/02 07:27:14;;;;;;;0.90;0.10;;;;;;;16.65;42.65;99871.56;4920674;29;20170;-63
2024/03/02 07:29:40;;;;;;;0.30;0.15;;;;;;;16.75;41.95;99864.81;4936329;29;20038;-63
2024/03/02 07:32:06;;;;;;;0.30;0.20;;;;;;;16.91;41.82;99863.72;4935099;29;20035;-62
2024/03/02 07:34:31;;;;;;;1.75;0.47;;;;;;;17.04;41.35;99860.28;4935035;29;20044;-62
2024/03/02 07:36:57;;;;;;;1.00;0.40;;;;;;;17.21;41.95;99861.69;4937176;29;20046;-63
2024/03/02 07:39:22;;;;;;;1.02;0.20;;;;;;;17.30;41.43;99866.78;4919171;29;20066;-63
2024/03/02 07:41:48;;;;;;;0.52;0.17;;;;;;;17.39;41.20;99875.59;4935753;29;20040;-62
2024/03/02 07:44:16;;;;;;;2.00;0.10;;;;;;;17.51;41.18;99867.75;4935359;29;20126;-62
2024/03/02 07:46:42;;;;;;;0.55;0.20;;;;;;;17.55;41.18;99869.09;4919537;29;20035;-62
2024/03/02 07:49:08;;;;;;;1.27;0.28;;;;;;;17.59;41.36;99849.53;4935421;29;20036;-62
2024/03/02 07:51:33;;;;;;;1.58;0.30;;;;;;;17.68;41.91;99856.47;4935062;29;20103;-62
2024/03/02 07:53:59;;;;;;;1.95;0.52;;;;;;;17.71;40.63;99864.19;4936307;29;20032;-62
2024/03/02 07:56:24;;;;;;;1.98;0.30;;;;;;;17.71;40.70;99869.59;4936090;29;20038;-62
2024/03/02 07:58:50;;;;;;;3.05;0.30;;;;;;;17.64;40.64;99857.91;4936106;29;20031;-62
2024/03/02 08:01:15;;;;;;;0.95;0.32;;;;;;;17.63;41.47;99864.34;4934690;29;20039;-62
2024/03/02 08:03:40;;;;;;;1.42;0.43;;;;;;;17.61;41.32;99860.16;4936257;29;20056;-62
2024/03/02 08:06:06;;;;;;;6.00;0.75;;;;;;;17.71;40.42;99868.78;4919224;29;20028;-62
2024/03/02 08:08:31;;;;;;;0.57;0.20;;;;;;;17.77;41.17;99868.81;4936090;29;20051;-63
2024/03/02 08:10:57;;;;;;;1.98;0.45;;;;;;;17.79;40.82;99866.75;4934567;29;20091;-62
2024/03/02 08:13:23;;;;;;;1.15;0.28;;;;;;;17.81;40.77;99863.84;4934930;29;20059;-62
2024/03/02 08:15:48;;;;;;;0.65;0.20;;;;;;;17.94;40.23;99859.34;4925039;29;20040;-62
2024/03/02 08:18:14;;;;;;;0.75;0.13;;;;;;;18.06;40.34;99862.31;4929742;29;20040;-62
2024/03/02 08:20:40;;;;;;;1.38;0.65;;;;;;;18.12;40.16;99863.38;4934982;29;20032;-62
2024/03/02 08:23:05;;;;;;;2.67;0.35;;;;;;;18.27;39.96;99862.19;4918376;29;20042;-62
2024/03/02 08:25:31;;;;;;;0.50;0.45;;;;;;;18.46;40.35;99868.72;4935776;29;20039;-62
2024/03/02 08:27:56;;;;;;;1.98;0.45;;;;;;;18.50;39.96;99854.59;4934960;29;20043;-63
2024/03/02 08:30:22;;;;;;;4.75;0.38;;;;;;;18.64;39.58;99862.78;4934474;29;20112;-62
2024/03/02 08:32:47;;;;;;;0.60;0.40;;;;;;;18.56;40.23;99859.19;4903224;29;20042;-63
2024/03/02 08:35:13;;;;;;;6.15;0.38;;;;;;;18.70;40.00;99865.50;4935601;29;20054;-62
2024/03/02 08:37:39;;;;;;;0.47;0.20;;;;;;;18.79;39.61;99872.41;4919240;29;20051;-64
2024/03/02 08:40:07;;;;;;;2.38;0.30;;;;;;;18.88;39.46;99865.75;4934572;29;20028;-63
2024/03/02 08:42:32;;;;;;;1.02;0.40;;;;;;;18.99;39.72;99873.28;4935488;29;20043;-65
2024/03/02 08:44:58;;;;;;;0.25;0.25;;;;;;;18.97;39.17;99866.38;4919865;29;20087;-65
2024/03/02 08:47:23;;;;;;;0.57;0.10;;;;;;;18.95;39.76;99876.63;4935401;29;20032;-67
2024/03/02 08:49:48;;;;;;;5.72;0.45;;;;;;;18.96;39.00;99865.53;4937066;29;20035;-64
2024/03/02 08:52:14;;;;;;;4.00;0.20;;;;;;;19.17;38.80;99870.78;4934898;29;20047;-65
2024/03/02 08:54:39;;;;;;;0.77;0.50;;;;;;;19.35;39.22;99861.16;4936332;29;20038;-65
2024/03/02 08:57:05;;;;;;;3.60;0.40;;;;;;;19.40;38.84;99877.72;4935401;29;20115;-65
2024/03/02 08:59:31;;;;;;;0.57;0.20;;;;;;;19.58;38.73;99858.88;4934668;29;20460;-65
2024/03/02 09:01:57;;;;;;;0.65;0.22;;;;;;;19.72;38.80;99865.97;4934987;29;20050;-65
2024/03/02 09:04:22;;;;;;;2.25;0.70;;;;;;;19.85;38.13;99855.06;4919609;29;20036;-65
2024/03/02 09:06:49;;;;;;;1.20;0.68;;;;;;;19.83;38.29;99861.75;4936710;29;20035;-66
2024/03/02 09:09:14;;;;;;;2.30;0.45;;;;;;;20.00;37.79;99877.41;4934951;29;20036;-65
2024/03/02 09:11:39;;;;;;;2.00;0.15;;;;;;;20.14;37.54;99864.59;4919564;29;20050;-65
2024/03/02 09:14:05;;;;;;;2.28;0.50;;;;;;;20.31;37.81;99865.84;4938656;29;20031;-66
2024/03/02 09:16:31;;;;;;;3.63;0.30;;;;;;;20.66;37.78;99866.31;4939757;29;20131;-65
2024/03/02 09:18:57;;;;;;;1.33;0.20;;;;;;;20.95;36.90;99862.97;4938685;29;20479;-65
2024/03/02 09:21:22;;;;;;;3.53;0.68;;;;;;;21.00;37.02;99871.31;4938282;29;20040;-65
2024/03/02 09:23:48;;;;;;;0.30;0.30;;;;;;;21.28;36.20;99871.75;4938537;29;20043;-65
2024/03/02 09:26:14;;;;;;;0.73;0.40;;;;;;;21.36;36.25;99865.19;4939832;29;20039;-66
2024/03/02 09:28:43;;;;;;;2.67;0.43;;;;;;;21.44;36.01;99876.66;4938181;29;20124;-62
2024/03/02 09:31:08;;;;;;;3.78;1.50;;;;;;;21.51;36.54;99862.97;4938741;29;20099;-65
2024/03/02 09:33:34;;;;;;;1.33;0.20;;;;;;;21.51;35.87;99873.88;4937652;29;20036;-65
2024/03/02 09:35:59;;;;;;;0.77;0.52;;;;;;;21.64;36.29;99870.19;4938834;29;20496;-64
2024/03/02 09:38:24;;;;;;;1.33;0.57;;;;;;;21.83;35.29;99874.63;4939064;29;20496;-64
2024/03/02 09:40:50;;;;;;;1.00;0.40;;;;;;;22.12;35.42;99871.19;4938870;29;20118;-65
2024/03/02 09:43:15;;;;;;;1.48;0.60;;;;;;;22.79;34.79;99863.81;4938501;29;20039;-65
2024/03/02 09:45:41;;;;;;;1.67;0.45;;;;;;;24.09;32.99;99851.75;4937437;29;20068;-65
2024/03/02 09:48:07;;;;;;;3.65;0.45;;;;;;;25.13;31.67;99858.78;4937533;29;20043;-65
2024/03/02 09:50:32;;;;;;;0.65;0.30;;;;;;;24.70;31.81;99854.69;4938899;29;20496;-65
2024/03/02 09:52:59;;;;;;;1.55;0.32;;;;;;;24.56;32.69;99852.47;4938481;29;20091;-65
2024/03/02 09:55:24;;;;;;;1.67;0.38;;;;;;;24.45;32.64;99845.16;4938869;29;20036;-66
2024/03/02 09:57:50;;;;;;;0.30;0.20;;;;;;;24.35;32.76;99840.28;4937563;29;20036;-65
2024/03/02 10:00:16;;;;;;;2.20;0.50;;;;;;;24.30;32.60;99845.66;4937584;29;20122;-65
2024/03/02 10:02:43;;;;;;;3.08;0.43;;;;;;;24.18;32.35;99842.09;4937221;29;20131;-65
2024/03/02 10:05:14;;;;;;;4.38;0.55;;;;;;;24.23;32.01;99842.25;4938563;29;20068;-66
2024/03/02 10:07:39;;;;;;;1.40;0.40;;;;;;;24.50;31.80;99848.81;4921814;29;20039;-66
2024/03/02 10:10:15;;;;;;;0.43;0.22;;;;;;;24.93;31.90;99836.50;4937149;29;20031;-66
2024/03/02 10:12:40;;;;;;;4.90;0.75;;;;;;;25.28;31.51;99839.84;4938572;29;20039;-66
2024/03/02 10:15:06;;;;;;;1.98;0.47;;;;;;;25.65;31.03;99824.56;4937355;29;20032;-65
2024/03/02 10:17:31;;;;;;;1.92;0.45;;;;;;;25.85;31.07;99824.03;4938219;29;20031;-65
2024/03/02 10:19:57;;;;;;;4.00;0.88;;;;;;;25.94;30.47;99817.84;4937915;29;20099;-65
2024/03/02 10:22:23;;;;;;;1.98;0.63;;;;;;;26.13;30.20;99820.28;4938575;29;20039;-65
2024/03/02 10:24:49;;;;;;;1.55;0.43;;;;;;;26.31;30.61;99822.72;4936779;29;20389;-65
2024/03/02 10:27:27;;;;;;;2.03;0.50;;;;;;;26.37;29.85;99822.56;4936972;29;20042;-66
2024/03/02 10:29:52;;;;;;;3.00;0.95;;;;;;;26.63;29.97;99826.41;4920678;29;20043;-66
2024/03/02 10:32:17;;;;;;;4.05;0.60;;;;;;;26.48;30.52;99823.50;4937877;29;20135;-66
2024/03/02 10:34:45;;;;;;;2.33;0.43;;;;;;;26.72;29.83;99830.34;4936622;29;20075;-66
2024/03/02 10:37:11;;;;;;;1.88;0.35;;;;;;;26.82;29.86;99819.50;4936306;29;20032;-64
2024/03/02 10:39:39;;;;;;;2.58;0.40;;;;;;;26.81;29.81;99822.50;4938108;29;20087;-65
2024/03/02 10:42:05;;;;;;;3.17;0.60;;;;;;;26.71;29.62;99811.38;4936172;29;20038;-64
2024/03/02 10:44:32;;;;;;;3.88;0.60;;;;;;;26.53;29.13;99802.41;4936538;29;20123;-66
2024/03/02 10:47:00;;;;;;;0.63;0.50;;;;;;;26.59;29.68;99798.63;4936456;29;20452;-66
2024/03/02 10:49:26;;;;;;;1.10;0.40;;;;;;;26.78;29.62;99796.38;4937635;29;20118;-65
2024/03/02 10:51:52;;;;;;;1.25;0.35;;;;;;;26.97;29.41;99800.38;4935904;29;20050;-68
2024/03/02 10:54:18;;;;;;;4.28;0.93;;;;;;;21.82;21.49;99815.69;4936329;29;20470;-64
2024/03/02 10:56:45;;;;;;;1.10;0.30;;;;;;;23.33;27.02;99814.44;4937577;29;20547;-66
2024/03/02 10:59:39;;;;;;;4.03;0.60;;;;;;;24.61;28.10;99815.06;4936564;29;20432;-67
2024/03/02 11:02:06;;;;;;;3.42;0.47;;;;;;;25.79;28.09;99803.94;4937280;28;20415;-66
2024/03/02 11:04:32;;;;;;;1.35;0.60;;;;;;;26.51;28.25;99801.00;4936278;29;20177;-68
2024/03/02 11:07:06;;;;;;;1.15;0.38;;;;;;;26.98;27.62;99781.97;4936018;29;20574;-68
2024/03/02 11:09:35;;;;;;;2.90;0.43;;;;;;;27.35;27.62;99779.25;4920033;29;20139;-67
2024/03/02 11:12:04;;;;;;;0.73;0.35;;;;;;;27.60;27.87;99782.19;4935902;29;20028;-68
2024/03/02 11:14:34;;;;;;;1.48;0.35;;;;;;;27.79;27.50;99777.91;4936023;29;20039;-68
2024/03/02 11:17:00;;;;;;;1.50;0.52;;;;;;;27.86;26.74;99774.91;4920773;29;20031;-69
2024/03/02 11:19:25;;;;;;;2.17;0.30;;;;;;;27.95;26.80;99774.13;4935923;29;20043;-68
2024/03/02 11:21:51;;;;;;;1.50;0.30;;;;;;;27.98;26.80;99770.84;4935743;29;20063;-69
2024/03/02 11:24:27;;;;;;;2.00;0.47;;;;;;;28.12;26.27;99785.81;4935993;29;20111;-68
2024/03/02 11:26:53;;;;;;;3.92;0.40;;;;;;;28.20;26.09;99774.25;4935489;29;20043;-68
2024/03/02 11:29:36;;;;;;;2.22;0.43;;;;;;;28.26;26.67;99764.91;4935523;29;20035;-68
2024/03/02 11:32:06;;;;;;;1.55;0.28;;;;;;;28.34;27.10;99757.25;4936679;29;20036;-68
2024/03/02 11:34:35;;;;;;;1.60;0.47;;;;;;;28.36;26.00;99764.13;4916418;29;20059;-70